Latest Weather Observations for Ulladulla

IDN60801

Issued at 2:03 pm EST Saturday 25 April 2015 (issued every 30 minutes, with the page automatically refreshed every 10 minutes)

About weather observations | Map of weather stations | Latest weather observations for NSW | Other Formats
Station Details ID: 069138 Name: ULLADULLA AWS Lat: -35.36 Lon: 150.48 Height: 35.7 m
Data from the previous 72 hours. | See also: Recent months at Ulladulla
Date/Time
EST
Temp
°C
App
Temp
°C
Dew
Point
Rel
Hum
%
Delta-T
°C
Wind Press
QNH
hPa
Press
MSL
hPa
Rain
since 9 am
mm
Dir
 
Spd
km/h
Gust
km/h
Spd
kts
Gust
kts
25/02:00pm 19.7 18.6 13.2 66 3.7 S 11 15 6 8 1005.7 1005.6 0.0
25/01:30pm 21.0 20.2 12.9 60 4.6 SSE 9 15 5 8 1005.4 1005.3 0.0
25/01:00pm 21.1 20.3 12.8 59 4.7 SSE 9 11 5 6 1006.0 1005.9 0.0
25/12:30pm 21.1 20.1 12.3 57 5.0 S 9 11 5 6 1006.5 1006.4 0.0
25/12:00pm 21.3 19.7 10.2 49 6.0 S 9 13 5 7 1006.9 1006.8 0.0
25/11:30am 21.3 19.8 10.5 50 5.9 S 9 13 5 7 1007.2 1007.1 0.0
25/11:00am 21.2 19.6 10.1 49 6.0 S 9 13 5 7 1007.5 1007.4 0.0
25/10:30am 21.4 20.0 9.6 47 6.3 SSW 7 11 4 6 1007.4 1007.3 0.0
25/10:00am 20.8 19.6 9.4 48 6.1 SSW 6 9 3 5 1007.6 1007.5 0.0
25/09:30am 20.7 19.2 9.3 48 6.1 SSW 7 9 4 5 1007.6 1007.5 0.0
25/09:00am 20.1 19.4 9.9 52 5.5 WSW 4 7 2 4 1007.8 1007.7 0.0
25/08:30am 18.9 17.8 10.5 58 4.5 W 7 11 4 6 1007.6 1007.5 0.0
25/08:00am 18.4 16.6 9.5 56 4.7 W 9 13 5 7 1007.5 1007.4 0.0
25/07:30am 17.5 15.6 9.2 58 4.3 W 9 15 5 8 1007.0 1006.9 0.0
25/07:00am 16.6 14.7 9.1 61 3.9 W 9 15 5 8 1006.7 1006.6 0.0
25/06:30am 16.0 14.0 8.7 62 3.7 W 9 15 5 8 1006.5 1006.4 0.0
25/06:00am 16.3 13.9 8.8 61 3.9 WNW 11 19 6 10 1006.5 1006.4 0.0
25/05:30am 16.0 13.6 8.5 61 3.8 WNW 11 19 6 10 1006.1 1006.0 0.0
25/05:00am 16.0 14.4 8.7 62 3.7 WNW 7 13 4 7 1006.1 1006.0 0.0
25/04:30am 15.6 14.0 8.6 63 3.6 W 7 13 4 7 1005.8 1005.7 0.0
25/04:00am 15.9 14.5 8.9 63 3.6 WNW 6 9 3 5 1005.7 1005.6 0.0
25/03:30am 16.7 15.3 9.4 62 3.8 WNW 7 13 4 7 1005.5 1005.4 0.0
25/03:00am 17.1 15.4 9.8 62 3.9 WNW 9 19 5 10 1005.5 1005.4 0.0
25/02:30am 17.0 15.3 9.7 62 3.8 W 9 17 5 9 1005.4 1005.3 0.0
25/02:00am 17.5 15.5 10.1 62 3.9 WNW 11 19 6 10 1005.6 1005.5 0.0
25/01:30am 17.0 14.8 10.8 67 3.3 NW 13 19 7 10 1005.8 1005.7 0.0
25/01:00am 16.4 15.6 11.1 71 2.9 NW 6 11 3 6 1006.2 1006.1 0.0
25/12:30am 16.9 16.0 11.4 70 3.0 NW 7 13 4 7 1006.2 1006.1 0.0
25/12:00am 16.8 15.9 11.5 71 2.9 NW 7 15 4 8 1006.3 1006.2 0.0
 
Date/Time
EST
Temp
°C
App
Temp
°C
Dew
Point
Rel
Hum
%
Delta-T
°C
Wind Press
QNH
hPa
Press
MSL
hPa
Rain
since 9 am
mm
Dir
 
Spd
km/h
Gust
km/h
Spd
kts
Gust
kts
24/11:30pm 17.5 16.0 11.8 69 3.1 NW 11 22 6 12 1006.3 1006.2 0.0
24/11:00pm 16.9 15.7 11.6 71 2.9 NW 9 13 5 7 1006.2 1006.1 0.0
24/10:30pm 17.1 16.3 11.8 71 2.9 N 7 11 4 6 1006.3 1006.2 0.0
24/10:00pm 16.1 15.4 11.3 73 2.6 NNW 6 7 3 4 1006.2 1006.1 0.0
24/09:30pm 17.1 16.3 11.6 70 3.0 NW 7 9 4 5 1006.2 1006.1 0.0
24/09:00pm 17.8 17.0 11.8 68 3.3 NW 7 9 4 5 1006.2 1006.1 0.0
24/08:30pm 18.1 17.8 11.4 65 3.7 NW 4 7 2 4 1006.0 1005.9 0.0
24/08:00pm 18.5 19.1 11.8 65 3.7 CALM 0 2 0 1 1005.7 1005.6 0.0
24/07:30pm 19.7 18.5 11.5 59 4.5 WNW 9 15 5 8 1005.3 1005.2 0.0
24/07:00pm 19.8 18.7 11.8 60 4.5 W 9 19 5 10 1005.2 1005.1 0.0
24/06:30pm 19.8 18.4 12.1 61 4.3 W 11 22 6 12 1005.0 1004.9 0.0
24/06:00pm 19.6 19.1 12.1 62 4.2 W 6 13 3 7 1004.6 1004.5 0.0
24/05:30pm 20.1 19.0 12.1 60 4.5 W 9 17 5 9 1004.2 1004.1 0.0
24/05:00pm 20.5 19.5 12.2 59 4.7 WNW 9 17 5 9 1004.1 1004.0 0.0
24/04:30pm 20.3 20.5 13.0 63 4.1 WNW 4 7 2 4 1003.7 1003.6 0.0
24/04:00pm 21.3 21.5 13.2 60 4.7 W 4 9 2 5 1003.7 1003.6 0.0
24/03:30pm 21.5 22.3 13.7 61 4.5 SW 2 6 1 3 1003.5 1003.4 0.0
24/03:00pm 22.9 22.4 12.8 53 5.8 NW 7 17 4 9 1003.3 1003.2 0.0
24/02:30pm 24.6 24.0 13.5 50 6.5 WNW 9 17 5 9 1003.2 1003.1 0.0
24/02:00pm 24.3 22.5 13.2 50 6.5 NW 15 24 8 13 1003.1 1003.0 0.0
24/01:30pm 24.1 21.8 13.0 50 6.4 NW 17 26 9 14 1003.2 1003.1 0.0
24/01:00pm 24.2 23.3 14.9 56 5.6 NW 13 20 7 11 1003.3 1003.2 0.0
24/12:30pm 22.6 23.9 18.4 77 2.6 N 9 17 5 9 1003.8 1003.7 0.0
24/12:00pm 20.8 21.1 17.0 79 2.3 NE 11 15 6 8 1004.3 1004.2 0.0
24/11:30am 21.4 21.9 17.4 78 2.5 NE 11 15 6 8 1004.6 1004.5 0.0
24/11:00am 20.9 21.7 15.9 73 3.0 N 6 11 3 6 1005.1 1005.0 0.0
24/10:30am 20.5 21.3 15.9 75 2.8 N 6 9 3 5 1005.3 1005.2 0.0
24/10:00am 19.8 20.5 16.1 79 2.2 NE 7 11 4 6 1005.6 1005.5 0.0
24/09:30am 19.2 20.4 15.9 81 2.0 N 4 7 2 4 1006.0 1005.9 0.0
24/09:00am 19.1 20.5 16.5 85 1.6 N 4 6 2 3 1006.3 1006.2 0.0
24/08:30am 18.4 18.9 15.1 81 1.9 N 6 9 3 5 1006.6 1006.5 0.0
24/08:00am 18.5 19.1 15.4 82 1.8 N 6 13 3 7 1006.6 1006.5 0.0
24/07:30am 16.9 17.6 15.6 92 0.8 NNW 6 6 3 3 1006.5 1006.4 0.0
24/07:00am 15.6 16.6 14.3 92 0.7 NNW 2 6 1 3 1006.2 1006.1 0.0
24/06:30am 15.3 14.9 14.2 93 0.6 NW 9 13 5 7 1006.7 1006.6 0.0
24/06:00am 14.9 15.7 14.7 99 0.1 NNW 4 6 2 3 1006.3 1006.2 0.0
24/05:30am 15.6 17.3 15.3 98 0.2 CALM 0 2 0 1 1006.7 1006.6 0.0
24/05:00am 15.3 16.1 14.8 97 0.3 NW 4 6 2 3 1006.8 1006.7 0.0
24/04:30am 15.2 16.4 14.9 98 0.2 N 2 4 1 2 1006.9 1006.8 0.0
24/04:00am 15.2 16.0 14.9 98 0.2 N 4 6 2 3 1007.1 1007.0 0.0
24/03:30am 15.2 16.7 14.7 97 0.3 CALM 0 0 0 0 1007.3 1007.2 0.0
24/03:00am 14.9 15.9 14.4 97 0.3 N 2 6 1 3 1007.3 1007.2 0.0
24/02:30am 15.3 15.6 14.5 95 0.5 WNW 6 7 3 4 1007.6 1007.5 0.0
24/02:00am 15.4 15.7 14.6 95 0.5 W 6 7 3 4 1007.7 1007.6 0.0
24/01:30am 15.7 16.0 14.9 95 0.5 WSW 7 9 4 5 1008.0 1007.9 0.0
24/01:00am 16.1 16.5 15.3 95 0.5 W 7 11 4 6 1008.4 1008.3 0.0
24/12:30am 16.4 17.2 15.8 96 0.4 WNW 6 9 3 5 1008.9 1008.8 0.0
24/12:00am 16.3 17.1 15.8 97 0.3 W 6 7 3 4 1009.1 1009.0 0.0
 
Date/Time
EST
Temp
°C
App
Temp
°C
Dew
Point
Rel
Hum
%
Delta-T
°C
Wind Press
QNH
hPa
Press
MSL
hPa
Rain
since 9 am
mm
Dir
 
Spd
km/h
Gust
km/h
Spd
kts
Gust
kts
23/11:30pm 16.2 16.8 15.7 97 0.3 W 7 11 4 6 1009.3 1009.2 0.0
23/11:00pm 16.4 17.0 15.9 97 0.3 WSW 7 9 4 5 1009.7 1009.6 0.0
23/10:30pm 16.5 17.1 15.9 96 0.4 WSW 7 9 4 5 1010.1 1010.0 0.0
23/10:00pm 16.7 17.4 16.1 96 0.4 WSW 7 9 4 5 1010.3 1010.2 0.0
23/09:30pm 16.9 17.8 16.1 95 0.5 W 6 9 3 5 1010.6 1010.5 0.0
23/09:00pm 17.0 17.8 16.4 96 0.4 W 7 11 4 6 1010.8 1010.7 0.0
23/08:30pm 17.0 17.8 16.4 96 0.4 W 7 11 4 6 1010.9 1010.8 0.0
23/08:00pm 17.1 18.0 16.5 96 0.4 WSW 7 11 4 6 1010.9 1010.8 0.0
23/07:30pm 17.1 18.0 16.5 96 0.4 W 7 9 4 5 1010.8 1010.7 0.0
23/07:00pm 17.1 18.1 16.3 95 0.5 WSW 6 9 3 5 1010.7 1010.6 0.0
23/06:30pm 17.4 18.3 16.1 92 0.8 SW 6 9 3 5 1010.7 1010.6 0.0
23/06:00pm 17.8 18.7 16.1 90 1.0 SW 6 9 3 5 1010.4 1010.3 0.0
23/05:30pm 18.4 19.5 16.6 89 1.1 SW 6 9 3 5 1010.2 1010.1 0.0
23/05:00pm 19.4 20.3 17.5 89 1.2 S 9 11 5 6 1010.0 1009.9 0.0
23/04:30pm 19.5 20.1 16.7 84 1.7 S 9 13 5 7 1010.1 1010.0 0.0
23/04:00pm 20.3 21.2 17.5 84 1.7 S 9 13 5 7 1010.0 1009.9 0.0
23/03:30pm 20.3 19.7 17.5 84 1.7 S 17 19 9 10 1009.9 1009.8 0.0
23/03:00pm 20.3 19.2 17.3 83 1.8 S 19 22 10 12 1010.1 1010.0 0.0
23/02:30pm 20.4 19.3 17.4 83 1.8 S 19 20 10 11 1010.3 1010.2 0.0
23/02:00pm 20.8 20.5 18.2 85 1.6 S 17 22 9 12 1010.4 1010.3 0.0
23/01:30pm 20.8 21.1 18.0 84 1.7 SSW 13 20 7 11 1010.5 1010.4 0.0
23/01:00pm 20.9 21.3 18.1 84 1.7 S 13 17 7 9 1010.8 1010.7 0.0
23/12:30pm 20.7 20.7 18.1 85 1.6 S 15 19 8 10 1011.2 1011.1 0.0
23/12:00pm 20.8 20.8 18.2 85 1.6 SSW 15 20 8 11 1011.7 1011.6 0.0
23/11:30am 20.4 20.4 18.0 86 1.5 SSW 15 22 8 12 1012.2 1012.1 0.0
23/11:00am 20.6 21.6 18.7 89 1.2 SSW 11 19 6 10 1012.5 1012.4 0.0
23/10:30am 19.8 19.5 17.4 86 1.5 SSW 15 24 8 13 1012.7 1012.6 0.0
23/10:00am 19.5 18.9 17.5 88 1.2 SSW 17 22 9 12 1012.8 1012.7 0.0
23/09:30am 19.1 19.3 17.6 91 0.9 SW 13 19 7 10 1012.9 1012.8 0.0
23/09:00am 18.6 19.0 18.1 97 0.3 SSW 13 22 7 12 1013.0 1012.9 39.6
23/08:30am 18.3 18.9 17.7 96 0.4 SW 11 19 6 10 1013.1 1013.0 39.6
23/08:00am 17.8 18.0 17.6 99 0.1 SW 13 19 7 10 1013.0 1012.9 39.6
23/07:30am 17.2 17.2 17.2 100 0.0 SW 13 19 7 10 1012.9 1012.8 39.6
23/07:00am 16.6 16.7 16.6 100 0.0 SW 11 19 6 10 1012.7 1012.6 39.6
23/06:30am 16.5 16.6 16.5 100 0.0 SW 11 15 6 8 1012.4 1012.3 39.6
23/06:00am 16.4 16.1 16.4 100 0.0 SW 13 17 7 9 1012.1 1012.0 39.6
23/05:30am 16.3 15.9 16.3 100 0.0 SW 13 20 7 11 1012.1 1012.0 39.6
23/05:00am 16.3 15.9 16.3 100 0.0 SW 13 19 7 10 1011.8 1011.7 39.6
23/04:30am 16.3 15.9 16.3 100 0.0 SW 13 19 7 10 1011.7 1011.6 39.6
23/04:00am 16.2 15.8 16.2 100 0.0 SW 13 19 7 10 1011.7 1011.6 39.6
23/03:30am 16.1 16.0 16.1 100 0.0 SW 11 19 6 10 1011.7 1011.6 39.6
23/03:00am 16.1 15.3 16.1 100 0.0 SW 15 24 8 13 1011.7 1011.6 39.6
23/02:30am 16.3 15.6 16.3 100 0.0 SW 15 26 8 14 1011.7 1011.6 39.6
23/02:00am 16.3 15.2 16.3 100 0.0 SW 17 26 9 14 1011.7 1011.6 39.4
23/01:30am 16.3 15.2 16.3 100 0.0 SW 17 30 9 16 1011.9 1011.8 37.4
23/01:00am 16.1 16.0 16.1 100 0.0 SW 11 24 6 13 1012.2 1012.1 37.4
23/12:30am 16.1 14.3 16.1 100 0.0 SW 20 35 11 19 1012.2 1012.1 37.2
23/12:00am 16.1 14.5 16.1 100 0.0 SW 19 28 10 15 1012.7 1012.6 33.2
 
Date/Time
EST
Temp
°C
App
Temp
°C
Dew
Point
Rel
Hum
%
Delta-T
°C
Wind Press
QNH
hPa
Press
MSL
hPa
Rain
since 9 am
mm
Dir
 
Spd
km/h
Gust
km/h
Spd
kts
Gust
kts
22/11:30pm 16.3 14.6 16.3 100 0.0 SW 20 32 11 17 1012.9 1012.8 31.2
22/11:00pm 16.5 13.8 16.5 100 0.0 SSW 26 39 14 21 1013.0 1012.9 30.2
22/10:30pm 16.1 13.6 16.1 100 0.0 SW 24 32 13 17 1012.9 1012.8 29.2
22/10:00pm 16.2 13.7 16.2 100 0.0 SW 24 41 13 22 1013.3 1013.2 27.6
22/09:30pm 16.3 14.2 16.3 100 0.0 SSW 22 39 12 21 1013.6 1013.5 26.4
22/09:00pm 16.4 14.3 16.1 98 0.2 SW 22 35 12 19 1013.6 1013.5 25.6
22/08:30pm 16.2 14.3 15.7 97 0.3 SW 20 30 11 16 1013.6 1013.5 25.6
22/08:00pm 16.2 14.3 15.7 97 0.3 SSW 20 32 11 17 1013.6 1013.5 25.6
22/07:30pm 16.1 13.8 15.6 97 0.3 SW 22 39 12 21 1013.5 1013.4 25.6
22/07:00pm 16.3 14.0 15.7 96 0.4 SSW 22 33 12 18 1013.9 1013.8 25.6
22/06:30pm 16.4 14.3 16.2 99 0.1 SSW 22 37 12 20 1013.6 1013.5 25.4
22/06:00pm 16.0 13.7 15.8 99 0.1 SW 22 33 12 18 1013.4 1013.3 25.4
22/05:30pm 16.4 13.2 16.2 99 0.1 SSW 28 46 15 25 1013.2 1013.1 25.4
22/05:28pm 16.5 13.3 16.3 99 0.1 SSW 28 46 15 25 1013.1 1013.0 25.2
22/05:00pm 16.3 13.8 16.1 99 0.1 SSW 24 39 13 21 1013.2 1013.1 24.6
22/04:30pm 16.6 13.1 16.6 100 0.0 SSW 30 44 16 24 1012.9 1012.8 24.6
22/04:07pm 16.5 13.0 16.5 100 0.0 SSW 30 50 16 27 1013.2 1013.1 24.6
22/04:00pm 16.5 13.0 16.5 100 0.0 SSW 30 48 16 26 1013.2 1013.1 24.4
22/03:57pm 16.5 13.4 16.5 100 0.0 SSW 28 48 15 26 1013.2 1013.1 24.4
22/03:30pm 16.4 12.9 16.4 100 0.0 SSW 30 46 16 25 1013.4 1013.3 24.0
22/03:00pm 16.0 11.9 16.0 100 0.0 SSW 32 50 17 27 1013.2 1013.1 23.8
22/02:57pm 16.0 12.7 16.0 100 0.0 SSW 28 50 15 27 1013.2 1013.1 23.8
22/02:30pm 15.5 12.0 15.5 100 0.0 SW 28 44 15 24 1013.2 1013.1 22.8

Other Formats:

Comma delimited format used in spreadsheet applications
http://www.bom.gov.au/fwo/IDN60801/IDN60801.94938.axf

JavaScript Object Notation format (JSON) in row-major order
http://www.bom.gov.au/fwo/IDN60801/IDN60801.94938.json